sensor_id;sensor_type;location;lat;lon;timestamp;pressure;altitude;pressure_sealevel;temperature
9985;BMP180;16737;50.932;6.780;2022-08-01T00:01:58;100382.00;;;26.30
9985;BMP180;16737;50.932;6.780;2022-08-01T00:04:26;100382.00;;;26.30
9985;BMP180;16737;50.932;6.780;2022-08-01T00:06:53;100373.00;;;26.30
9985;BMP180;16737;50.932;6.780;2022-08-01T00:09:21;100376.00;;;26.30
9985;BMP180;16737;50.932;6.780;2022-08-01T00:11:48;100374.00;;;26.30
9985;BMP180;16737;50.932;6.780;2022-08-01T00:14:15;100372.00;;;26.30
9985;BMP180;16737;50.932;6.780;2022-08-01T00:16:41;100374.00;;;26.20
9985;BMP180;16737;50.932;6.780;2022-08-01T00:19:08;100380.00;;;26.20
9985;BMP180;16737;50.932;6.780;2022-08-01T00:21:37;100386.00;;;26.20
9985;BMP180;16737;50.932;6.780;2022-08-01T00:24:04;100383.00;;;26.20
9985;BMP180;16737;50.932;6.780;2022-08-01T00:26:32;100375.00;;;26.10
9985;BMP180;16737;50.932;6.780;2022-08-01T00:28:59;100382.00;;;26.10
9985;BMP180;16737;50.932;6.780;2022-08-01T00:31:25;100384.00;;;26.10
9985;BMP180;16737;50.932;6.780;2022-08-01T00:33:52;100387.00;;;26.10
9985;BMP180;16737;50.932;6.780;2022-08-01T00:36:19;100394.00;;;26.20
9985;BMP180;16737;50.932;6.780;2022-08-01T00:38:48;100392.00;;;26.10
9985;BMP180;16737;50.932;6.780;2022-08-01T00:41:15;100394.00;;;26.10
9985;BMP180;16737;50.932;6.780;2022-08-01T00:43:42;100373.00;;;26.00
9985;BMP180;16737;50.932;6.780;2022-08-01T00:46:09;100391.00;;;26.00
9985;BMP180;16737;50.932;6.780;2022-08-01T00:48:36;100387.00;;;25.90
9985;BMP180;16737;50.932;6.780;2022-08-01T00:51:04;100393.00;;;25.90
9985;BMP180;16737;50.932;6.780;2022-08-01T00:53:32;100389.00;;;25.80
9985;BMP180;16737;50.932;6.780;2022-08-01T00:56:02;100388.00;;;25.80
9985;BMP180;16737;50.932;6.780;2022-08-01T00:58:33;100389.00;;;25.70
9985;BMP180;16737;50.932;6.780;2022-08-01T01:01:00;100387.00;;;25.70
9985;BMP180;16737;50.932;6.780;2022-08-01T01:03:27;100379.00;;;25.60
9985;BMP180;16737;50.932;6.780;2022-08-01T01:06:09;100382.00;;;25.50
9985;BMP180;16737;50.932;6.780;2022-08-01T01:08:45;100383.00;;;25.50
9985;BMP180;16737;50.932;6.780;2022-08-01T01:11:25;100379.00;;;25.40
9985;BMP180;16737;50.932;6.780;2022-08-01T01:14:01;100392.00;;;25.40
9985;BMP180;16737;50.932;6.780;2022-08-01T01:16:32;100378.00;;;25.40
9985;BMP180;16737;50.932;6.780;2022-08-01T01:19:02;100372.00;;;25.30
9985;BMP180;16737;50.932;6.780;2022-08-01T01:21:51;100374.00;;;25.30
9985;BMP180;16737;50.932;6.780;2022-08-01T01:24:34;100375.00;;;25.20
9985;BMP180;16737;50.932;6.780;2022-08-01T01:27:17;100370.00;;;25.20
9985;BMP180;16737;50.932;6.780;2022-08-01T01:29:51;100371.00;;;25.20
9985;BMP180;16737;50.932;6.780;2022-08-01T01:32:27;100370.00;;;25.20
9985;BMP180;16737;50.932;6.780;2022-08-01T01:35:00;100364.00;;;25.20
9985;BMP180;16737;50.932;6.780;2022-08-01T01:37:33;100381.00;;;25.20
9985;BMP180;16737;50.932;6.780;2022-08-01T01:40:04;100375.00;;;25.10
9985;BMP180;16737;50.932;6.780;2022-08-01T01:42:33;100376.00;;;25.10
9985;BMP180;16737;50.932;6.780;2022-08-01T01:45:05;100356.00;;;25.10
9985;BMP180;16737;50.932;6.780;2022-08-01T01:47:34;100376.00;;;25.10
9985;BMP180;16737;50.932;6.780;2022-08-01T01:50:04;100377.00;;;25.10
9985;BMP180;16737;50.932;6.780;2022-08-01T01:52:36;100382.00;;;25.10
9985;BMP180;16737;50.932;6.780;2022-08-01T01:55:08;100379.00;;;25.10
9985;BMP180;16737;50.932;6.780;2022-08-01T01:57:37;100378.00;;;25.10
9985;BMP180;16737;50.932;6.780;2022-08-01T02:00:09;100373.00;;;25.00
9985;BMP180;16737;50.932;6.780;2022-08-01T02:02:38;100376.00;;;25.10
9985;BMP180;16737;50.932;6.780;2022-08-01T02:05:09;100376.00;;;25.10
9985;BMP180;16737;50.932;6.780;2022-08-01T02:07:38;100378.00;;;25.10
9985;BMP180;16737;50.932;6.780;2022-08-01T02:10:08;100373.00;;;25.10
9985;BMP180;16737;50.932;6.780;2022-08-01T02:12:41;100375.00;;;25.10
9985;BMP180;16737;50.932;6.780;2022-08-01T02:15:12;100370.00;;;25.10
9985;BMP180;16737;50.932;6.780;2022-08-01T02:17:45;100373.00;;;25.10
9985;BMP180;16737;50.932;6.780;2022-08-01T02:20:14;100358.00;;;25.10
9985;BMP180;16737;50.932;6.780;2022-08-01T02:22:46;100359.00;;;25.10
9985;BMP180;16737;50.932;6.780;2022-08-01T02:25:22;100350.00;;;25.10
9985;BMP180;16737;50.932;6.780;2022-08-01T02:27:59;100358.00;;;25.10
9985;BMP180;16737;50.932;6.780;2022-08-01T02:30:34;100356.00;;;25.10
9985;BMP180;16737;50.932;6.780;2022-08-01T02:33:05;100355.00;;;25.10
9985;BMP180;16737;50.932;6.780;2022-08-01T02:35:41;100363.00;;;25.10
9985;BMP180;16737;50.932;6.780;2022-08-01T02:38:11;100364.00;;;25.10
9985;BMP180;16737;50.932;6.780;2022-08-01T02:40:45;100359.00;;;25.10
9985;BMP180;16737;50.932;6.780;2022-08-01T02:43:18;100366.00;;;25.10
9985;BMP180;16737;50.932;6.780;2022-08-01T02:46:00;100358.00;;;25.10
9985;BMP180;16737;50.932;6.780;2022-08-01T02:48:31;100363.00;;;25.10
9985;BMP180;16737;50.932;6.780;2022-08-01T02:51:01;100350.00;;;25.10
9985;BMP180;16737;50.932;6.780;2022-08-01T02:53:33;100360.00;;;25.10
9985;BMP180;16737;50.932;6.780;2022-08-01T02:56:04;100366.00;;;25.10
9985;BMP180;16737;50.932;6.780;2022-08-01T02:58:35;100354.00;;;25.10
9985;BMP180;16737;50.932;6.780;2022-08-01T03:01:05;100359.00;;;25.10
9985;BMP180;16737;50.932;6.780;2022-08-01T03:03:34;100357.00;;;25.10
9985;BMP180;16737;50.932;6.780;2022-08-01T03:06:02;100357.00;;;25.10
9985;BMP180;16737;50.932;6.780;2022-08-01T03:08:31;100361.00;;;25.10
9985;BMP180;16737;50.932;6.780;2022-08-01T03:11:01;100369.00;;;25.10
9985;BMP180;16737;50.932;6.780;2022-08-01T03:13:30;100365.00;;;25.10
9985;BMP180;16737;50.932;6.780;2022-08-01T03:15:59;100371.00;;;25.10
9985;BMP180;16737;50.932;6.780;2022-08-01T03:18:29;100372.00;;;25.10
9985;BMP180;16737;50.932;6.780;2022-08-01T03:20:59;100353.00;;;25.10
9985;BMP180;16737;50.932;6.780;2022-08-01T03:23:29;100364.00;;;25.10
9985;BMP180;16737;50.932;6.780;2022-08-01T03:25:58;100366.00;;;25.10
9985;BMP180;16737;50.932;6.780;2022-08-01T03:28:27;100365.00;;;25.00
9985;BMP180;16737;50.932;6.780;2022-08-01T03:30:56;100366.00;;;25.00
9985;BMP180;16737;50.932;6.780;2022-08-01T03:33:25;100368.00;;;25.00
9985;BMP180;16737;50.932;6.780;2022-08-01T03:35:55;100371.00;;;25.00
9985;BMP180;16737;50.932;6.780;2022-08-01T03:38:25;100357.00;;;25.00
9985;BMP180;16737;50.932;6.780;2022-08-01T03:41:00;100366.00;;;25.00
9985;BMP180;16737;50.932;6.780;2022-08-01T03:43:33;100369.00;;;25.00
9985;BMP180;16737;50.932;6.780;2022-08-01T03:46:07;100374.00;;;25.00
9985;BMP180;16737;50.932;6.780;2022-08-01T03:48:41;100377.00;;;25.00
9985;BMP180;16737;50.932;6.780;2022-08-01T03:51:12;100367.00;;;25.00
9985;BMP180;16737;50.932;6.780;2022-08-01T03:53:42;100359.00;;;25.00
9985;BMP180;16737;50.932;6.780;2022-08-01T03:56:12;100369.00;;;25.00
9985;BMP180;16737;50.932;6.780;2022-08-01T03:58:44;100351.00;;;25.00
9985;BMP180;16737;50.932;6.780;2022-08-01T04:01:11;100366.00;;;25.00
9985;BMP180;16737;50.932;6.780;2022-08-01T04:03:40;100365.00;;;25.00
9985;BMP180;16737;50.932;6.780;2022-08-01T04:06:09;100366.00;;;25.00
9985;BMP180;16737;50.932;6.780;2022-08-01T04:08:38;100371.00;;;25.00
9985;BMP180;16737;50.932;6.780;2022-08-01T04:11:07;100371.00;;;25.00
9985;BMP180;16737;50.932;6.780;2022-08-01T04:13:34;100360.00;;;25.00
9985;BMP180;16737;50.932;6.780;2022-08-01T04:16:05;100371.00;;;25.00
9985;BMP180;16737;50.932;6.780;2022-08-01T04:18:33;100366.00;;;25.00
9985;BMP180;16737;50.932;6.780;2022-08-01T04:21:00;100371.00;;;25.00
9985;BMP180;16737;50.932;6.780;2022-08-01T04:23:31;100368.00;;;25.00
9985;BMP180;16737;50.932;6.780;2022-08-01T04:26:04;100378.00;;;25.00
9985;BMP180;16737;50.932;6.780;2022-08-01T04:28:36;100386.00;;;25.00
9985;BMP180;16737;50.932;6.780;2022-08-01T04:31:10;100388.00;;;25.10
9985;BMP180;16737;50.932;6.780;2022-08-01T04:33:40;100392.00;;;25.10
9985;BMP180;16737;50.932;6.780;2022-08-01T04:36:12;100385.00;;;25.10
9985;BMP180;16737;50.932;6.780;2022-08-01T04:38:45;100386.00;;;25.10
9985;BMP180;16737;50.932;6.780;2022-08-01T04:41:17;100388.00;;;25.10
9985;BMP180;16737;50.932;6.780;2022-08-01T04:43:44;100397.00;;;25.10
9985;BMP180;16737;50.932;6.780;2022-08-01T04:46:14;100385.00;;;25.10
9985;BMP180;16737;50.932;6.780;2022-08-01T04:48:42;100402.00;;;25.20
9985;BMP180;16737;50.932;6.780;2022-08-01T04:51:14;100412.00;;;25.20
9985;BMP180;16737;50.932;6.780;2022-08-01T04:53:44;100412.00;;;25.30
9985;BMP180;16737;50.932;6.780;2022-08-01T04:56:15;100419.00;;;25.30
9985;BMP180;16737;50.932;6.780;2022-08-01T04:58:45;100421.00;;;25.40
9985;BMP180;16737;50.932;6.780;2022-08-01T05:01:13;100409.00;;;25.40
9985;BMP180;16737;50.932;6.780;2022-08-01T05:03:41;100412.00;;;25.40
9985;BMP180;16737;50.932;6.780;2022-08-01T05:06:08;100415.00;;;25.40
9985;BMP180;16737;50.932;6.780;2022-08-01T05:08:35;100408.00;;;25.30
9985;BMP180;16737;50.932;6.780;2022-08-01T05:11:04;100408.00;;;25.30
9985;BMP180;16737;50.932;6.780;2022-08-01T05:13:31;100413.00;;;25.30
9985;BMP180;16737;50.932;6.780;2022-08-01T05:15:58;100412.00;;;25.30
9985;BMP180;16737;50.932;6.780;2022-08-01T05:18:25;100416.00;;;25.20
9985;BMP180;16737;50.932;6.780;2022-08-01T05:20:52;100412.00;;;25.20
9985;BMP180;16737;50.932;6.780;2022-08-01T05:23:19;100418.00;;;25.20
9985;BMP180;16737;50.932;6.780;2022-08-01T05:25:46;100424.00;;;25.20
9985;BMP180;16737;50.932;6.780;2022-08-01T05:28:16;100430.00;;;25.20
9985;BMP180;16737;50.932;6.780;2022-08-01T05:30:43;100424.00;;;25.20
9985;BMP180;16737;50.932;6.780;2022-08-01T05:33:10;100425.00;;;25.10
9985;BMP180;16737;50.932;6.780;2022-08-01T05:35:37;100427.00;;;25.10
9985;BMP180;16737;50.932;6.780;2022-08-01T05:38:05;100428.00;;;25.10
9985;BMP180;16737;50.932;6.780;2022-08-01T05:40:33;100434.00;;;25.10
9985;BMP180;16737;50.932;6.780;2022-08-01T05:43:00;100430.00;;;25.10
9985;BMP180;16737;50.932;6.780;2022-08-01T05:45:28;100434.00;;;25.10
9985;BMP180;16737;50.932;6.780;2022-08-01T05:47:55;100433.00;;;25.10
9985;BMP180;16737;50.932;6.780;2022-08-01T05:50:22;100430.00;;;25.10
9985;BMP180;16737;50.932;6.780;2022-08-01T05:52:49;100438.00;;;25.10
9985;BMP180;16737;50.932;6.780;2022-08-01T05:55:16;100431.00;;;25.10
9985;BMP180;16737;50.932;6.780;2022-08-01T05:57:43;100430.00;;;25.10
9985;BMP180;16737;50.932;6.780;2022-08-01T06:00:12;100432.00;;;25.20
9985;BMP180;16737;50.932;6.780;2022-08-01T06:02:42;100427.00;;;25.10
9985;BMP180;16737;50.932;6.780;2022-08-01T06:05:10;100429.00;;;25.10
9985;BMP180;16737;50.932;6.780;2022-08-01T06:07:37;100430.00;;;25.10
9985;BMP180;16737;50.932;6.780;2022-08-01T06:10:07;100425.00;;;25.10
9985;BMP180;16737;50.932;6.780;2022-08-01T06:12:35;100431.00;;;25.10
9985;BMP180;16737;50.932;6.780;2022-08-01T06:15:03;100431.00;;;25.20
9985;BMP180;16737;50.932;6.780;2022-08-01T06:17:30;100425.00;;;25.20
9985;BMP180;16737;50.932;6.780;2022-08-01T06:19:59;100427.00;;;25.20
9985;BMP180;16737;50.932;6.780;2022-08-01T06:22:26;100434.00;;;25.30
9985;BMP180;16737;50.932;6.780;2022-08-01T06:24:53;100421.00;;;25.30
9985;BMP180;16737;50.932;6.780;2022-08-01T06:27:21;100432.00;;;25.30
9985;BMP180;16737;50.932;6.780;2022-08-01T06:29:50;100422.00;;;25.30
9985;BMP180;16737;50.932;6.780;2022-08-01T06:32:19;100421.00;;;25.40
9985;BMP180;16737;50.932;6.780;2022-08-01T06:34:46;100432.00;;;25.40
9985;BMP180;16737;50.932;6.780;2022-08-01T06:37:14;100438.00;;;25.50
9985;BMP180;16737;50.932;6.780;2022-08-01T06:39:42;100420.00;;;25.50
9985;BMP180;16737;50.932;6.780;2022-08-01T06:42:11;100428.00;;;25.60
9985;BMP180;16737;50.932;6.780;2022-08-01T06:44:40;100435.00;;;25.60
9985;BMP180;16737;50.932;6.780;2022-08-01T06:47:07;100432.00;;;25.60
9985;BMP180;16737;50.932;6.780;2022-08-01T06:49:34;100437.00;;;25.60
9985;BMP180;16737;50.932;6.780;2022-08-01T06:52:01;100442.00;;;25.70
9985;BMP180;16737;50.932;6.780;2022-08-01T06:54:31;100439.00;;;25.70
9985;BMP180;16737;50.932;6.780;2022-08-01T06:56:58;100438.00;;;25.70
9985;BMP180;16737;50.932;6.780;2022-08-01T06:59:25;100439.00;;;25.70
9985;BMP180;16737;50.932;6.780;2022-08-01T07:01:54;100433.00;;;25.70
9985;BMP180;16737;50.932;6.780;2022-08-01T07:04:21;100442.00;;;25.70
9985;BMP180;16737;50.932;6.780;2022-08-01T07:06:49;100444.00;;;25.70
9985;BMP180;16737;50.932;6.780;2022-08-01T07:09:16;100441.00;;;25.80
9985;BMP180;16737;50.932;6.780;2022-08-01T07:11:48;100447.00;;;25.80
9985;BMP180;16737;50.932;6.780;2022-08-01T07:14:16;100446.00;;;25.90
9985;BMP180;16737;50.932;6.780;2022-08-01T07:16:43;100454.00;;;26.00
9985;BMP180;16737;50.932;6.780;2022-08-01T07:19:10;100441.00;;;26.00
9985;BMP180;16737;50.932;6.780;2022-08-01T07:21:39;100447.00;;;26.00
9985;BMP180;16737;50.932;6.780;2022-08-01T07:24:08;100436.00;;;26.00
9985;BMP180;16737;50.932;6.780;2022-08-01T07:26:36;100448.00;;;26.10
9985;BMP180;16737;50.932;6.780;2022-08-01T07:29:04;100446.00;;;26.10
9985;BMP180;16737;50.932;6.780;2022-08-01T07:31:31;100444.00;;;26.10
9985;BMP180;16737;50.932;6.780;2022-08-01T07:33:58;100448.00;;;26.10
9985;BMP180;16737;50.932;6.780;2022-08-01T07:36:26;100443.00;;;26.20
9985;BMP180;16737;50.932;6.780;2022-08-01T07:38:53;100452.00;;;26.20
9985;BMP180;16737;50.932;6.780;2022-08-01T07:41:20;100458.00;;;26.30
9985;BMP180;16737;50.932;6.780;2022-08-01T07:43:47;100455.00;;;26.30
9985;BMP180;16737;50.932;6.780;2022-08-01T07:46:17;100459.00;;;26.30
9985;BMP180;16737;50.932;6.780;2022-08-01T07:48:44;100456.00;;;26.40
9985;BMP180;16737;50.932;6.780;2022-08-01T07:51:11;100462.00;;;26.40
9985;BMP180;16737;50.932;6.780;2022-08-01T07:53:38;100462.00;;;26.50
9985;BMP180;16737;50.932;6.780;2022-08-01T07:56:05;100458.00;;;26.50
9985;BMP180;16737;50.932;6.780;2022-08-01T07:58:32;100450.00;;;26.60
9985;BMP180;16737;50.932;6.780;2022-08-01T08:00:59;100443.00;;;26.60
9985;BMP180;16737;50.932;6.780;2022-08-01T08:03:28;100452.00;;;26.60
9985;BMP180;16737;50.932;6.780;2022-08-01T08:05:55;100456.00;;;26.70
9985;BMP180;16737;50.932;6.780;2022-08-01T08:08:22;100460.00;;;26.70
9985;BMP180;16737;50.932;6.780;2022-08-01T08:10:49;100464.00;;;26.80
9985;BMP180;16737;50.932;6.780;2022-08-01T08:13:16;100466.00;;;26.80
9985;BMP180;16737;50.932;6.780;2022-08-01T08:15:43;100466.00;;;26.80
9985;BMP180;16737;50.932;6.780;2022-08-01T08:18:10;100455.00;;;26.90
9985;BMP180;16737;50.932;6.780;2022-08-01T08:20:39;100458.00;;;27.00
9985;BMP180;16737;50.932;6.780;2022-08-01T08:23:06;100463.00;;;27.00
9985;BMP180;16737;50.932;6.780;2022-08-01T08:25:53;100467.00;;;27.10
9985;BMP180;16737;50.932;6.780;2022-08-01T08:28:20;100475.00;;;27.20
9985;BMP180;16737;50.932;6.780;2022-08-01T08:30:47;100475.00;;;27.20
9985;BMP180;16737;50.932;6.780;2022-08-01T08:33:14;100477.00;;;27.30
9985;BMP180;16737;50.932;6.780;2022-08-01T08:35:42;100474.00;;;27.30
9985;BMP180;16737;50.932;6.780;2022-08-01T08:38:09;100479.00;;;27.30
9985;BMP180;16737;50.932;6.780;2022-08-01T08:40:37;100472.00;;;27.30
9985;BMP180;16737;50.932;6.780;2022-08-01T08:43:05;100479.00;;;27.40
9985;BMP180;16737;50.932;6.780;2022-08-01T08:45:33;100481.00;;;27.40
9985;BMP180;16737;50.932;6.780;2022-08-01T08:48:00;100479.00;;;27.40
9985;BMP180;16737;50.932;6.780;2022-08-01T08:50:29;100477.00;;;27.50
9985;BMP180;16737;50.932;6.780;2022-08-01T08:53:00;100484.00;;;27.50
9985;BMP180;16737;50.932;6.780;2022-08-01T08:55:29;100482.00;;;27.60
9985;BMP180;16737;50.932;6.780;2022-08-01T08:57:57;100479.00;;;27.60
9985;BMP180;16737;50.932;6.780;2022-08-01T09:00:26;100485.00;;;27.60
9985;BMP180;16737;50.932;6.780;2022-08-01T09:02:53;100489.00;;;27.70
9985;BMP180;16737;50.932;6.780;2022-08-01T09:05:23;100485.00;;;27.70
9985;BMP180;16737;50.932;6.780;2022-08-01T09:07:52;100492.00;;;27.70
9985;BMP180;16737;50.932;6.780;2022-08-01T09:10:21;100482.00;;;27.70
9985;BMP180;16737;50.932;6.780;2022-08-01T09:13:05;100493.00;;;27.70
9985;BMP180;16737;50.932;6.780;2022-08-01T09:15:42;100499.00;;;27.70
9985;BMP180;16737;50.932;6.780;2022-08-01T09:18:26;100498.00;;;27.70
9985;BMP180;16737;50.932;6.780;2022-08-01T09:21:09;100500.00;;;27.70
9985;BMP180;16737;50.932;6.780;2022-08-01T09:23:37;100498.00;;;27.80
9985;BMP180;16737;50.932;6.780;2022-08-01T09:26:09;100499.00;;;27.80
9985;BMP180;16737;50.932;6.780;2022-08-01T09:28:38;100501.00;;;27.90
9985;BMP180;16737;50.932;6.780;2022-08-01T09:31:10;100495.00;;;27.90
9985;BMP180;16737;50.932;6.780;2022-08-01T09:33:51;100501.00;;;28.00
9985;BMP180;16737;50.932;6.780;2022-08-01T09:36:20;100497.00;;;28.10
9985;BMP180;16737;50.932;6.780;2022-08-01T09:38:48;100495.00;;;28.20
9985;BMP180;16737;50.932;6.780;2022-08-01T09:41:28;100497.00;;;28.30
9985;BMP180;16737;50.932;6.780;2022-08-01T09:43:55;100499.00;;;28.30
9985;BMP180;16737;50.932;6.780;2022-08-01T09:46:23;100492.00;;;28.30
9985;BMP180;16737;50.932;6.780;2022-08-01T09:48:59;100490.00;;;28.40
9985;BMP180;16737;50.932;6.780;2022-08-01T09:51:32;100494.00;;;28.40
9985;BMP180;16737;50.932;6.780;2022-08-01T09:53:59;100507.00;;;28.50
9985;BMP180;16737;50.932;6.780;2022-08-01T09:56:36;100504.00;;;28.50
9985;BMP180;16737;50.932;6.780;2022-08-01T09:59:03;100501.00;;;28.60
9985;BMP180;16737;50.932;6.780;2022-08-01T10:01:43;100503.00;;;28.60
9985;BMP180;16737;50.932;6.780;2022-08-01T10:04:13;100500.00;;;28.60
9985;BMP180;16737;50.932;6.780;2022-08-01T10:06:42;100501.00;;;28.60
9985;BMP180;16737;50.932;6.780;2022-08-01T10:09:11;100496.00;;;28.60
9985;BMP180;16737;50.932;6.780;2022-08-01T10:11:41;100500.00;;;28.60
9985;BMP180;16737;50.932;6.780;2022-08-01T10:14:09;100496.00;;;28.70
9985;BMP180;16737;50.932;6.780;2022-08-01T10:16:39;100492.00;;;28.70
9985;BMP180;16737;50.932;6.780;2022-08-01T10:19:08;100499.00;;;28.70
9985;BMP180;16737;50.932;6.780;2022-08-01T10:21:37;100488.00;;;28.70
9985;BMP180;16737;50.932;6.780;2022-08-01T10:24:06;100493.00;;;28.70
9985;BMP180;16737;50.932;6.780;2022-08-01T10:26:35;100496.00;;;28.70
9985;BMP180;16737;50.932;6.780;2022-08-01T10:29:05;100492.00;;;28.70
9985;BMP180;16737;50.932;6.780;2022-08-01T10:31:34;100494.00;;;28.70
9985;BMP180;16737;50.932;6.780;2022-08-01T10:34:04;100503.00;;;28.70
9985;BMP180;16737;50.932;6.780;2022-08-01T10:36:32;100506.00;;;28.80
9985;BMP180;16737;50.932;6.780;2022-08-01T10:39:01;100502.00;;;28.80
9985;BMP180;16737;50.932;6.780;2022-08-01T10:41:29;100504.00;;;28.80
9985;BMP180;16737;50.932;6.780;2022-08-01T10:43:57;100496.00;;;28.80
9985;BMP180;16737;50.932;6.780;2022-08-01T10:46:26;100484.00;;;28.80
9985;BMP180;16737;50.932;6.780;2022-08-01T10:48:58;100495.00;;;28.90
9985;BMP180;16737;50.932;6.780;2022-08-01T10:51:28;100497.00;;;28.90
9985;BMP180;16737;50.932;6.780;2022-08-01T10:53:56;100498.00;;;29.00
9985;BMP180;16737;50.932;6.780;2022-08-01T10:56:24;100499.00;;;29.00
9985;BMP180;16737;50.932;6.780;2022-08-01T10:59:01;100497.00;;;28.90
9985;BMP180;16737;50.932;6.780;2022-08-01T11:01:31;100498.00;;;29.00
9985;BMP180;16737;50.932;6.780;2022-08-01T11:04:06;100483.00;;;29.00
9985;BMP180;16737;50.932;6.780;2022-08-01T11:07:03;100489.00;;;29.00
9985;BMP180;16737;50.932;6.780;2022-08-01T11:09:38;100483.00;;;29.10
9985;BMP180;16737;50.932;6.780;2022-08-01T11:12:08;100493.00;;;29.20
9985;BMP180;16737;50.932;6.780;2022-08-01T11:17:38;100482.00;;;29.30
9985;BMP180;16737;50.932;6.780;2022-08-01T11:20:11;100479.00;;;29.40
9985;BMP180;16737;50.932;6.780;2022-08-01T11:26:15;100480.00;;;29.40
9985;BMP180;16737;50.932;6.780;2022-08-01T11:28:44;100479.00;;;29.50
9985;BMP180;16737;50.932;6.780;2022-08-01T11:31:30;100476.00;;;29.50
9985;BMP180;16737;50.932;6.780;2022-08-01T11:34:00;100484.00;;;29.60
9985;BMP180;16737;50.932;6.780;2022-08-01T11:36:28;100472.00;;;29.70
9985;BMP180;16737;50.932;6.780;2022-08-01T11:39:13;100469.00;;;29.70
9985;BMP180;16737;50.932;6.780;2022-08-01T11:41:42;100469.00;;;29.80
9985;BMP180;16737;50.932;6.780;2022-08-01T11:44:11;100471.00;;;29.90
9985;BMP180;16737;50.932;6.780;2022-08-01T11:47:00;100469.00;;;30.00
9985;BMP180;16737;50.932;6.780;2022-08-01T11:52:17;100471.00;;;30.20
9985;BMP180;16737;50.932;6.780;2022-08-01T11:54:50;100471.00;;;30.30
9985;BMP180;16737;50.932;6.780;2022-08-01T11:57:19;100470.00;;;30.40
9985;BMP180;16737;50.932;6.780;2022-08-01T11:59:49;100462.00;;;30.50
9985;BMP180;16737;50.932;6.780;2022-08-01T12:02:19;100473.00;;;30.60
9985;BMP180;16737;50.932;6.780;2022-08-01T12:04:53;100472.00;;;30.70
9985;BMP180;16737;50.932;6.780;2022-08-01T12:07:21;100469.00;;;30.70
9985;BMP180;16737;50.932;6.780;2022-08-01T12:09:57;100478.00;;;30.80
9985;BMP180;16737;50.932;6.780;2022-08-01T12:12:27;100480.00;;;30.80
9985;BMP180;16737;50.932;6.780;2022-08-01T12:14:57;100486.00;;;30.80
9985;BMP180;16737;50.932;6.780;2022-08-01T12:17:32;100483.00;;;30.80
9985;BMP180;16737;50.932;6.780;2022-08-01T12:20:11;100484.00;;;30.80
9985;BMP180;16737;50.932;6.780;2022-08-01T12:22:39;100486.00;;;30.80
9985;BMP180;16737;50.932;6.780;2022-08-01T12:25:09;100482.00;;;30.80
9985;BMP180;16737;50.932;6.780;2022-08-01T12:27:38;100488.00;;;30.80
9985;BMP180;16737;50.932;6.780;2022-08-01T12:30:08;100497.00;;;30.70
9985;BMP180;16737;50.932;6.780;2022-08-01T12:32:36;100494.00;;;30.80
9985;BMP180;16737;50.932;6.780;2022-08-01T12:35:07;100489.00;;;30.80
9985;BMP180;16737;50.932;6.780;2022-08-01T12:37:38;100482.00;;;30.80
9985;BMP180;16737;50.932;6.780;2022-08-01T12:40:15;100482.00;;;30.90
9985;BMP180;16737;50.932;6.780;2022-08-01T12:42:44;100488.00;;;30.90
9985;BMP180;16737;50.932;6.780;2022-08-01T12:45:15;100479.00;;;31.00
9985;BMP180;16737;50.932;6.780;2022-08-01T12:47:44;100485.00;;;31.00
9985;BMP180;16737;50.932;6.780;2022-08-01T12:50:15;100480.00;;;31.10
9985;BMP180;16737;50.932;6.780;2022-08-01T12:52:43;100487.00;;;31.10
9985;BMP180;16737;50.932;6.780;2022-08-01T12:55:13;100483.00;;;31.10
9985;BMP180;16737;50.932;6.780;2022-08-01T12:57:44;100488.00;;;31.10
9985;BMP180;16737;50.932;6.780;2022-08-01T13:00:20;100484.00;;;31.10
9985;BMP180;16737;50.932;6.780;2022-08-01T13:02:49;100482.00;;;31.10
9985;BMP180;16737;50.932;6.780;2022-08-01T13:05:24;100486.00;;;31.10
9985;BMP180;16737;50.932;6.780;2022-08-01T13:07:51;100487.00;;;31.00
9985;BMP180;16737;50.932;6.780;2022-08-01T13:10:27;100484.00;;;31.00
9985;BMP180;16737;50.932;6.780;2022-08-01T13:12:58;100481.00;;;31.00
9985;BMP180;16737;50.932;6.780;2022-08-01T13:15:28;100476.00;;;31.00
9985;BMP180;16737;50.932;6.780;2022-08-01T13:17:59;100481.00;;;30.90
9985;BMP180;16737;50.932;6.780;2022-08-01T13:20:30;100470.00;;;30.90
9985;BMP180;16737;50.932;6.780;2022-08-01T13:23:11;100465.00;;;30.90
9985;BMP180;16737;50.932;6.780;2022-08-01T13:25:50;100469.00;;;30.90
9985;BMP180;16737;50.932;6.780;2022-08-01T13:28:20;100477.00;;;31.00
9985;BMP180;16737;50.932;6.780;2022-08-01T13:31:02;100477.00;;;30.90
9985;BMP180;16737;50.932;6.780;2022-08-01T13:33:41;100476.00;;;30.90
9985;BMP180;16737;50.932;6.780;2022-08-01T13:36:10;100487.00;;;30.90
9985;BMP180;16737;50.932;6.780;2022-08-01T13:38:37;100475.00;;;30.80
9985;BMP180;16737;50.932;6.780;2022-08-01T13:41:22;100479.00;;;30.80
9985;BMP180;16737;50.932;6.780;2022-08-01T13:43:50;100481.00;;;30.70
9985;BMP180;16737;50.932;6.780;2022-08-01T13:46:18;100473.00;;;30.70
9985;BMP180;16737;50.932;6.780;2022-08-01T13:48:45;100475.00;;;30.70
9985;BMP180;16737;50.932;6.780;2022-08-01T13:51:14;100479.00;;;30.70
9985;BMP180;16737;50.932;6.780;2022-08-01T13:53:43;100475.00;;;30.60
9985;BMP180;16737;50.932;6.780;2022-08-01T13:56:11;100478.00;;;30.60
9985;BMP180;16737;50.932;6.780;2022-08-01T13:58:38;100475.00;;;30.60
9985;BMP180;16737;50.932;6.780;2022-08-01T14:01:06;100480.00;;;30.60
9985;BMP180;16737;50.932;6.780;2022-08-01T14:03:33;100475.00;;;30.60
9985;BMP180;16737;50.932;6.780;2022-08-01T14:06:01;100478.00;;;30.60
9985;BMP180;16737;50.932;6.780;2022-08-01T14:08:29;100479.00;;;30.60
9985;BMP180;16737;50.932;6.780;2022-08-01T14:10:57;100476.00;;;30.60
9985;BMP180;16737;50.932;6.780;2022-08-01T14:13:24;100476.00;;;30.50
9985;BMP180;16737;50.932;6.780;2022-08-01T14:15:52;100470.00;;;30.60
9985;BMP180;16737;50.932;6.780;2022-08-01T14:18:19;100475.00;;;30.60
9985;BMP180;16737;50.932;6.780;2022-08-01T14:20:47;100468.00;;;30.60
9985;BMP180;16737;50.932;6.780;2022-08-01T14:23:14;100471.00;;;30.60
9985;BMP180;16737;50.932;6.780;2022-08-01T14:25:43;100470.00;;;30.60
9985;BMP180;16737;50.932;6.780;2022-08-01T14:28:10;100473.00;;;30.60
9985;BMP180;16737;50.932;6.780;2022-08-01T14:30:38;100466.00;;;30.60
9985;BMP180;16737;50.932;6.780;2022-08-01T14:33:07;100472.00;;;30.60
9985;BMP180;16737;50.932;6.780;2022-08-01T14:35:34;100475.00;;;30.60